sensor_id;sensor_type;location;lat;lon;timestamp;pressure;altitude;pressure_sealevel;temperature;humidity
7200;BME280;3641;49.082;8.200;2024-03-07T00:00:01;100969.16;;;6.84;100.00
7200;BME280;3641;49.082;8.200;2024-03-07T00:02:28;100972.47;;;6.88;100.00
7200;BME280;3641;49.082;8.200;2024-03-07T00:04:55;100973.72;;;6.94;100.00
7200;BME280;3641;49.082;8.200;2024-03-07T00:07:21;100968.44;;;6.92;100.00
7200;BME280;3641;49.082;8.200;2024-03-07T00:09:48;100974.75;;;6.63;100.00
7200;BME280;3641;49.082;8.200;2024-03-07T00:12:16;100970.47;;;6.80;100.00
7200;BME280;3641;49.082;8.200;2024-03-07T00:14:42;100974.00;;;6.90;100.00
7200;BME280;3641;49.082;8.200;2024-03-07T00:17:09;100979.16;;;6.94;100.00
7200;BME280;3641;49.082;8.200;2024-03-07T00:19:37;100973.72;;;6.94;100.00
7200;BME280;3641;49.082;8.200;2024-03-07T00:22:04;100972.88;;;6.93;100.00
7200;BME280;3641;49.082;8.200;2024-03-07T00:24:31;100972.31;;;6.89;100.00
7200;BME280;3641;49.082;8.200;2024-03-07T00:26:57;100976.66;;;6.53;100.00
7200;BME280;3641;49.082;8.200;2024-03-07T00:29:23;100973.03;;;6.82;100.00
7200;BME280;3641;49.082;8.200;2024-03-07T00:31:51;100974.75;;;6.93;100.00
7200;BME280;3641;49.082;8.200;2024-03-07T00:34:17;100970.06;;;6.65;100.00
7200;BME280;3641;49.082;8.200;2024-03-07T00:36:46;100976.06;;;6.69;100.00
7200;BME280;3641;49.082;8.200;2024-03-07T00:39:12;100973.66;;;6.56;100.00
7200;BME280;3641;49.082;8.200;2024-03-07T00:41:41;100973.66;;;6.56;100.00
7200;BME280;3641;49.082;8.200;2024-03-07T00:44:08;100969.31;;;6.73;100.00
7200;BME280;3641;49.082;8.200;2024-03-07T00:46:34;100964.19;;;6.70;100.00
7200;BME280;3641;49.082;8.200;2024-03-07T00:49:01;100972.06;;;6.63;100.00
7200;BME280;3641;49.082;8.200;2024-03-07T00:51:27;100976.50;;;6.45;100.00
7200;BME280;3641;49.082;8.200;2024-03-07T00:53:54;100965.91;;;6.61;100.00
7200;BME280;3641;49.082;8.200;2024-03-07T00:56:21;100968.22;;;6.46;100.00
7200;BME280;3641;49.082;8.200;2024-03-07T00:58:48;100968.63;;;6.61;100.00
7200;BME280;3641;49.082;8.200;2024-03-07T01:01:14;100972.06;;;6.63;100.00
7200;BME280;3641;49.082;8.200;2024-03-07T01:03:42;100966.06;;;6.50;100.00
7200;BME280;3641;49.082;8.200;2024-03-07T01:06:09;100969.63;;;6.60;100.00
7200;BME280;3641;49.082;8.200;2024-03-07T01:08:35;100972.34;;;6.60;100.00
7200;BME280;3641;49.082;8.200;2024-03-07T01:11:04;100969.34;;;6.63;100.00
7200;BME280;3641;49.082;8.200;2024-03-07T01:13:34;100970.34;;;6.52;100.00
7200;BME280;3641;49.082;8.200;2024-03-07T01:16:01;100969.06;;;6.47;100.00
7200;BME280;3641;49.082;8.200;2024-03-07T01:18:27;100955.63;;;6.65;100.00
7200;BME280;3641;49.082;8.200;2024-03-07T01:20:54;100964.34;;;6.59;100.00
7200;BME280;3641;49.082;8.200;2024-03-07T01:23:21;100968.63;;;6.61;100.00
7200;BME280;3641;49.082;8.200;2024-03-07T01:25:47;100963.66;;;6.37;100.00
7200;BME280;3641;49.082;8.200;2024-03-07T01:28:15;100962.50;;;6.20;100.00
7200;BME280;3641;49.082;8.200;2024-03-07T01:30:43;100953.81;;;6.26;100.00
7200;BME280;3641;49.082;8.200;2024-03-07T01:33:09;100955.50;;;6.47;100.00
7200;BME280;3641;49.082;8.200;2024-03-07T01:35:36;100955.53;;;6.27;100.00
7200;BME280;3641;49.082;8.200;2024-03-07T01:38:03;100946.38;;;6.28;100.00
7200;BME280;3641;49.082;8.200;2024-03-07T01:40:29;100949.69;;;6.32;100.00
7200;BME280;3641;49.082;8.200;2024-03-07T01:42:55;100957.38;;;6.46;100.00
7200;BME280;3641;49.082;8.200;2024-03-07T01:45:23;100954.50;;;6.38;100.00
7200;BME280;3641;49.082;8.200;2024-03-07T01:47:50;100951.94;;;6.36;100.00
7200;BME280;3641;49.082;8.200;2024-03-07T01:50:16;100947.09;;;6.40;100.00
7200;BME280;3641;49.082;8.200;2024-03-07T01:52:44;100948.38;;;6.16;100.00
7200;BME280;3641;49.082;8.200;2024-03-07T01:55:11;100947.53;;;6.35;100.00
7200;BME280;3641;49.082;8.200;2024-03-07T01:57:39;100948.78;;;6.41;100.00
7200;BME280;3641;49.082;8.200;2024-03-07T02:00:06;100948.38;;;6.46;100.00
7200;BME280;3641;49.082;8.200;2024-03-07T02:02:35;100946.38;;;6.58;100.00
7200;BME280;3641;49.082;8.200;2024-03-07T02:05:03;100947.09;;;6.21;100.00
7200;BME280;3641;49.082;8.200;2024-03-07T02:07:31;100946.50;;;6.36;100.00
7200;BME280;3641;49.082;8.200;2024-03-07T02:10:01;100950.09;;;6.17;100.00
7200;BME280;3641;49.082;8.200;2024-03-07T02:12:29;100947.09;;;6.21;100.00
7200;BME280;3641;49.082;8.200;2024-03-07T02:14:56;100948.38;;;6.26;100.00
7200;BME280;3641;49.082;8.200;2024-03-07T02:17:23;100938.66;;;6.24;100.00
7200;BME280;3641;49.082;8.200;2024-03-07T02:19:51;100937.81;;;6.33;100.00
7200;BME280;3641;49.082;8.200;2024-03-07T02:22:19;100936.13;;;6.32;100.00
7200;BME280;3641;49.082;8.200;2024-03-07T02:24:45;100940.38;;;6.25;100.00
7200;BME280;3641;49.082;8.200;2024-03-07T02:27:12;100937.66;;;6.34;100.00
7200;BME280;3641;49.082;8.200;2024-03-07T02:29:39;100934.13;;;6.14;100.00
7200;BME280;3641;49.082;8.200;2024-03-07T02:32:06;100930.97;;;6.09;100.00
7200;BME280;3641;49.082;8.200;2024-03-07T02:34:32;100931.69;;;6.11;100.00
7200;BME280;3641;49.082;8.200;2024-03-07T02:36:59;100924.94;;;5.96;100.00
7200;BME280;3641;49.082;8.200;2024-03-07T02:39:27;100926.69;;;5.97;100.00
7200;BME280;3641;49.082;8.200;2024-03-07T02:41:53;100931.97;;;5.98;100.00
7200;BME280;3641;49.082;8.200;2024-03-07T02:44:20;100919.78;;;5.83;100.00
7200;BME280;3641;49.082;8.200;2024-03-07T02:46:46;100923.63;;;5.80;100.00
7200;BME280;3641;49.082;8.200;2024-03-07T02:49:13;100919.41;;;6.17;100.00
7200;BME280;3641;49.082;8.200;2024-03-07T02:51:39;100917.56;;;6.17;100.00
7200;BME280;3641;49.082;8.200;2024-03-07T02:54:07;100919.50;;;5.86;100.00
7200;BME280;3641;49.082;8.200;2024-03-07T02:56:35;100920.75;;;5.62;100.00
7200;BME280;3641;49.082;8.200;2024-03-07T02:59:01;100911.38;;;5.76;100.00
7200;BME280;3641;49.082;8.200;2024-03-07T03:01:27;100914.47;;;5.52;100.00
7200;BME280;3641;49.082;8.200;2024-03-07T03:03:54;100910.41;;;5.87;100.00
7200;BME280;3641;49.082;8.200;2024-03-07T03:06:20;100902.25;;;5.87;100.00
7200;BME280;3641;49.082;8.200;2024-03-07T03:08:47;100906.34;;;5.62;99.73
7200;BME280;3641;49.082;8.200;2024-03-07T03:11:13;100904.47;;;5.53;99.02
7200;BME280;3641;49.082;8.200;2024-03-07T03:13:41;100904.06;;;5.67;99.93
7200;BME280;3641;49.082;8.200;2024-03-07T03:16:07;100903.16;;;5.47;98.59
7200;BME280;3641;49.082;8.200;2024-03-07T03:18:35;100902.34;;;5.66;99.39
7200;BME280;3641;49.082;8.200;2024-03-07T03:21:02;100902.59;;;5.43;98.47
7200;BME280;3641;49.082;8.200;2024-03-07T03:23:29;100904.63;;;5.51;99.87
7200;BME280;3641;49.082;8.200;2024-03-07T03:25:55;100898.66;;;5.57;98.12
7200;BME280;3641;49.082;8.200;2024-03-07T03:28:22;100903.34;;;5.55;98.88
7200;BME280;3641;49.082;8.200;2024-03-07T03:30:50;100907.16;;;5.43;98.59
7200;BME280;3641;49.082;8.200;2024-03-07T03:33:17;100895.81;;;5.69;98.17
7200;BME280;3641;49.082;8.200;2024-03-07T03:35:45;100884.97;;;5.59;97.65
7200;BME280;3641;49.082;8.200;2024-03-07T03:38:11;100893.59;;;5.33;98.08
7200;BME280;3641;49.082;8.200;2024-03-07T03:40:38;100891.06;;;5.51;98.04
7200;BME280;3641;49.082;8.200;2024-03-07T03:43:05;100890.50;;;5.48;98.68
7200;BME280;3641;49.082;8.200;2024-03-07T03:45:31;100886.78;;;5.58;97.82
7200;BME280;3641;49.082;8.200;2024-03-07T03:48:00;100887.56;;;5.20;97.21
7200;BME280;3641;49.082;8.200;2024-03-07T03:50:27;100884.13;;;5.18;97.66
7200;BME280;3641;49.082;8.200;2024-03-07T03:52:53;100891.03;;;5.32;97.61
7200;BME280;3641;49.082;8.200;2024-03-07T03:55:20;100885.16;;;4.86;97.45
7200;BME280;3641;49.082;8.200;2024-03-07T03:57:46;100883.09;;;4.78;96.66
7200;BME280;3641;49.082;8.200;2024-03-07T04:00:14;100881.81;;;5.03;97.07
7200;BME280;3641;49.082;8.200;2024-03-07T04:02:42;100886.69;;;5.09;97.26
7200;BME280;3641;49.082;8.200;2024-03-07T04:05:11;100887.34;;;5.02;96.08
7200;BME280;3641;49.082;8.200;2024-03-07T04:07:39;100886.34;;;4.93;96.11
7200;BME280;3641;49.082;8.200;2024-03-07T04:10:07;100890.50;;;5.07;96.52
7200;BME280;3641;49.082;8.200;2024-03-07T04:12:34;100886.69;;;4.79;95.40
7200;BME280;3641;49.082;8.200;2024-03-07T04:15:02;100892.91;;;4.69;95.86
7200;BME280;3641;49.082;8.200;2024-03-07T04:17:29;100888.06;;;4.73;96.07
7200;BME280;3641;49.082;8.200;2024-03-07T04:19:56;100884.53;;;4.72;96.30
7200;BME280;3641;49.082;8.200;2024-03-07T04:22:24;100885.16;;;4.86;96.65
7200;BME280;3641;49.082;8.200;2024-03-07T04:24:52;100886.91;;;4.97;96.25
7200;BME280;3641;49.082;8.200;2024-03-07T04:27:20;100880.97;;;5.03;96.81
7200;BME280;3641;49.082;8.200;2024-03-07T04:29:47;100886.81;;;4.77;95.74
7200;BME280;3641;49.082;8.200;2024-03-07T04:32:14;100890.59;;;4.65;96.55
7200;BME280;3641;49.082;8.200;2024-03-07T04:34:40;100884.16;;;4.66;94.97
7200;BME280;3641;49.082;8.200;2024-03-07T04:37:07;100887.28;;;4.40;95.20
7200;BME280;3641;49.082;8.200;2024-03-07T04:39:35;100883.53;;;4.52;95.06
7200;BME280;3641;49.082;8.200;2024-03-07T04:42:01;100889.78;;;4.53;94.85
7200;BME280;3641;49.082;8.200;2024-03-07T04:44:28;100882.50;;;4.44;95.59
7200;BME280;3641;49.082;8.200;2024-03-07T04:46:55;100885.53;;;4.50;95.79
7200;BME280;3641;49.082;8.200;2024-03-07T04:49:22;100883.28;;;4.55;94.83
7200;BME280;3641;49.082;8.200;2024-03-07T04:51:49;100878.72;;;4.77;95.33
7200;BME280;3641;49.082;8.200;2024-03-07T04:54:16;100878.50;;;4.69;94.02
7200;BME280;3641;49.082;8.200;2024-03-07T04:56:44;100876.00;;;4.56;94.36
7200;BME280;3641;49.082;8.200;2024-03-07T04:59:10;100888.50;;;4.78;94.35
7200;BME280;3641;49.082;8.200;2024-03-07T05:01:37;100879.25;;;4.71;94.93
7200;BME280;3641;49.082;8.200;2024-03-07T05:04:04;100880.13;;;4.50;94.64
7200;BME280;3641;49.082;8.200;2024-03-07T05:06:31;100878.94;;;4.64;94.28
7200;BME280;3641;49.082;8.200;2024-03-07T05:08:59;100880.50;;;4.46;93.39
7200;BME280;3641;49.082;8.200;2024-03-07T05:11:25;100878.56;;;4.58;94.12
7200;BME280;3641;49.082;8.200;2024-03-07T05:13:53;100875.25;;;4.23;93.59
7200;BME280;3641;49.082;8.200;2024-03-07T05:16:20;100876.09;;;4.24;95.09
7200;BME280;3641;49.082;8.200;2024-03-07T05:18:46;100876.59;;;4.17;95.12
7200;BME280;3641;49.082;8.200;2024-03-07T05:21:13;100888.44;;;4.05;94.80
7200;BME280;3641;49.082;8.200;2024-03-07T05:24:05;100878.25;;;4.09;94.40
7200;BME280;3641;49.082;8.200;2024-03-07T05:26:33;100874.03;;;4.37;93.67
7200;BME280;3641;49.082;8.200;2024-03-07T05:29:04;100877.31;;;4.19;93.71
7200;BME280;3641;49.082;8.200;2024-03-07T05:31:33;100868.56;;;4.27;93.99
7200;BME280;3641;49.082;8.200;2024-03-07T05:34:00;100879.63;;;4.03;93.57
7200;BME280;3641;49.082;8.200;2024-03-07T05:36:29;100874.84;;;4.28;93.84
7200;BME280;3641;49.082;8.200;2024-03-07T05:38:56;100881.47;;;4.03;93.54
7200;BME280;3641;49.082;8.200;2024-03-07T05:41:22;100870.63;;;4.14;94.72
7200;BME280;3641;49.082;8.200;2024-03-07T05:43:49;100875.56;;;4.09;94.09
7200;BME280;3641;49.082;8.200;2024-03-07T05:46:17;100881.28;;;4.15;94.44
7200;BME280;3641;49.082;8.200;2024-03-07T05:48:44;100879.97;;;4.10;93.28
7200;BME280;3641;49.082;8.200;2024-03-07T05:51:11;100875.75;;;4.17;93.92
7200;BME280;3641;49.082;8.200;2024-03-07T05:53:38;100876.16;;;4.12;93.21
7200;BME280;3641;49.082;8.200;2024-03-07T05:56:06;100873.00;;;4.07;92.80
7200;BME280;3641;49.082;8.200;2024-03-07T05:58:34;100875.00;;;3.94;92.78
7200;BME280;3641;49.082;8.200;2024-03-07T06:01:01;100877.25;;;4.10;92.93
7200;BME280;3641;49.082;8.200;2024-03-07T06:03:28;100879.69;;;4.13;93.15
7200;BME280;3641;49.082;8.200;2024-03-07T06:05:55;100882.78;;;4.08;92.65
7200;BME280;3641;49.082;8.200;2024-03-07T06:08:21;100880.19;;;3.86;91.67
7200;BME280;3641;49.082;8.200;2024-03-07T06:10:48;100873.78;;;4.19;92.12
7200;BME280;3641;49.082;8.200;2024-03-07T06:13:16;100883.78;;;3.86;91.39
7200;BME280;3641;49.082;8.200;2024-03-07T06:15:43;100881.13;;;3.63;91.56
7200;BME280;3641;49.082;8.200;2024-03-07T06:18:10;100882.84;;;3.97;92.68
7200;BME280;3641;49.082;8.200;2024-03-07T06:20:40;100880.91;;;4.20;91.37
7200;BME280;3641;49.082;8.200;2024-03-07T06:23:06;100887.41;;;3.96;90.06
7200;BME280;3641;49.082;8.200;2024-03-07T06:25:33;100878.00;;;4.12;91.35
7200;BME280;3641;49.082;8.200;2024-03-07T06:28:02;100880.84;;;4.10;91.56
7200;BME280;3641;49.082;8.200;2024-03-07T06:30:34;100889.72;;;3.69;91.26
7200;BME280;3641;49.082;8.200;2024-03-07T06:33:01;100892.94;;;3.95;91.51
7200;BME280;3641;49.082;8.200;2024-03-07T06:35:27;100888.75;;;4.02;91.29
7200;BME280;3641;49.082;8.200;2024-03-07T06:37:55;100880.88;;;3.99;90.46
7200;BME280;3641;49.082;8.200;2024-03-07T06:40:22;100886.19;;;3.89;91.18
7200;BME280;3641;49.082;8.200;2024-03-07T06:42:48;100888.66;;;3.81;89.76
7200;BME280;3641;49.082;8.200;2024-03-07T06:45:16;100888.25;;;3.97;91.67
7200;BME280;3641;49.082;8.200;2024-03-07T06:47:43;100890.34;;;3.93;89.89
7200;BME280;3641;49.082;8.200;2024-03-07T06:50:10;100894.53;;;3.97;90.28
7200;BME280;3641;49.082;8.200;2024-03-07T06:52:39;100891.19;;;3.94;89.97
7200;BME280;3641;49.082;8.200;2024-03-07T06:55:08;100902.38;;;3.89;90.05
7200;BME280;3641;49.082;8.200;2024-03-07T06:57:34;100897.03;;;3.78;89.13
7200;BME280;3641;49.082;8.200;2024-03-07T07:00:01;100888.44;;;4.05;89.15
7200;BME280;3641;49.082;8.200;2024-03-07T07:02:36;100893.34;;;3.79;88.55
7200;BME280;3641;49.082;8.200;2024-03-07T07:05:04;100893.34;;;3.79;88.56
7200;BME280;3641;49.082;8.200;2024-03-07T07:07:36;100890.81;;;3.98;87.83
7200;BME280;3641;49.082;8.200;2024-03-07T07:10:02;100891.28;;;4.04;89.16
7200;BME280;3641;49.082;8.200;2024-03-07T07:12:30;100894.59;;;4.07;88.14
7200;BME280;3641;49.082;8.200;2024-03-07T07:14:56;100890.31;;;4.26;89.90
7200;BME280;3641;49.082;8.200;2024-03-07T07:17:23;100896.09;;;4.00;88.92
7200;BME280;3641;49.082;8.200;2024-03-07T07:19:54;100895.25;;;3.99;88.45
7200;BME280;3641;49.082;8.200;2024-03-07T07:22:21;100898.63;;;4.13;87.51
7200;BME280;3641;49.082;8.200;2024-03-07T07:24:47;100896.59;;;3.94;87.19
7200;BME280;3641;49.082;8.200;2024-03-07T07:27:14;100888.88;;;4.00;87.67
7200;BME280;3641;49.082;8.200;2024-03-07T07:29:42;100895.72;;;4.05;88.00
7200;BME280;3641;49.082;8.200;2024-03-07T07:32:09;100896.66;;;4.15;89.19
7200;BME280;3641;49.082;8.200;2024-03-07T07:34:37;100893.69;;;4.18;87.64
7200;BME280;3641;49.082;8.200;2024-03-07T07:37:04;100898.75;;;4.11;86.47
7200;BME280;3641;49.082;8.200;2024-03-07T07:39:30;100891.91;;;4.07;87.07
7200;BME280;3641;49.082;8.200;2024-03-07T07:41:57;100894.28;;;4.22;87.92
7200;BME280;3641;49.082;8.200;2024-03-07T07:44:24;100884.84;;;4.16;86.04
7200;BME280;3641;49.082;8.200;2024-03-07T07:46:51;100880.91;;;4.20;85.13
7200;BME280;3641;49.082;8.200;2024-03-07T07:49:18;100875.88;;;4.15;84.24
7200;BME280;3641;49.082;8.200;2024-03-07T07:51:44;100877.75;;;4.15;83.22
7200;BME280;3641;49.082;8.200;2024-03-07T07:54:11;100876.59;;;4.17;81.95
7200;BME280;3641;49.082;8.200;2024-03-07T07:56:37;100869.09;;;4.21;84.16
7200;BME280;3641;49.082;8.200;2024-03-07T07:59:04;100873.13;;;4.27;84.59
7200;BME280;3641;49.082;8.200;2024-03-07T08:01:32;100874.38;;;4.44;86.33
7200;BME280;3641;49.082;8.200;2024-03-07T08:04:00;100873.44;;;4.33;82.77
7200;BME280;3641;49.082;8.200;2024-03-07T08:06:27;100876.97;;;4.45;83.73
7200;BME280;3641;49.082;8.200;2024-03-07T08:08:55;100874.38;;;4.44;82.10
7200;BME280;3641;49.082;8.200;2024-03-07T08:11:21;100864.28;;;4.46;80.95
7200;BME280;3641;49.082;8.200;2024-03-07T08:13:48;100861.19;;;4.50;83.22
7200;BME280;3641;49.082;8.200;2024-03-07T08:16:17;100866.19;;;4.55;80.66
7200;BME280;3641;49.082;8.200;2024-03-07T08:18:44;100862.56;;;4.45;80.25
7200;BME280;3641;49.082;8.200;2024-03-07T08:21:12;100860.06;;;4.53;80.63
7200;BME280;3641;49.082;8.200;2024-03-07T08:23:38;100850.38;;;4.50;78.32
7200;BME280;3641;49.082;8.200;2024-03-07T08:26:05;100844.84;;;4.52;78.39
7200;BME280;3641;49.082;8.200;2024-03-07T08:28:31;100845.16;;;4.59;78.57
7200;BME280;3641;49.082;8.200;2024-03-07T08:30:58;100850.34;;;4.71;79.14
7200;BME280;3641;49.082;8.200;2024-03-07T08:33:25;100843.81;;;4.74;79.16
7200;BME280;3641;49.082;8.200;2024-03-07T08:35:51;100841.25;;;4.72;78.20
7200;BME280;3641;49.082;8.200;2024-03-07T08:38:20;100832.59;;;4.79;79.31
7200;BME280;3641;49.082;8.200;2024-03-07T08:40:46;100836.75;;;4.93;79.82
7200;BME280;3641;49.082;8.200;2024-03-07T08:43:13;100831.66;;;4.99;79.02
7200;BME280;3641;49.082;8.200;2024-03-07T08:45:39;100820.97;;;4.98;78.30
7200;BME280;3641;49.082;8.200;2024-03-07T08:48:06;100826.31;;;5.09;79.93
7200;BME280;3641;49.082;8.200;2024-03-07T08:50:34;100828.53;;;5.04;79.13
7200;BME280;3641;49.082;8.200;2024-03-07T08:53:03;100813.91;;;5.16;79.76
7200;BME280;3641;49.082;8.200;2024-03-07T08:55:31;100818.59;;;5.04;76.49
7200;BME280;3641;49.082;8.200;2024-03-07T08:58:01;100819.19;;;5.18;76.78
7200;BME280;3641;49.082;8.200;2024-03-07T09:00:27;100813.03;;;5.06;75.11
7200;BME280;3641;49.082;8.200;2024-03-07T09:02:55;100808.09;;;5.21;76.60
7200;BME280;3641;49.082;8.200;2024-03-07T09:05:26;100810.50;;;5.24;76.19
7200;BME280;3641;49.082;8.200;2024-03-07T09:07:53;100810.09;;;5.28;75.63
7200;BME280;3641;49.082;8.200;2024-03-07T09:10:20;100811.50;;;5.33;77.31
7200;BME280;3641;49.082;8.200;2024-03-07T09:12:50;100811.84;;;5.39;75.39
7200;BME280;3641;49.082;8.200;2024-03-07T09:15:18;100811.69;;;5.41;73.77
7200;BME280;3641;49.082;8.200;2024-03-07T09:17:46;100809.13;;;5.59;76.05
7200;BME280;3641;49.082;8.200;2024-03-07T09:20:13;100804.72;;;5.58;72.96
7200;BME280;3641;49.082;8.200;2024-03-07T09:22:40;100803.84;;;5.48;72.35
7200;BME280;3641;49.082;8.200;2024-03-07T09:25:08;100800.28;;;5.47;71.94
7200;BME280;3641;49.082;8.200;2024-03-07T09:27:35;100800.00;;;5.50;71.20
7200;BME280;3641;49.082;8.200;2024-03-07T09:30:05;100797.00;;;5.43;71.46
7200;BME280;3641;49.082;8.200;2024-03-07T09:32:37;100805.69;;;5.47;71.77
7200;BME280;3641;49.082;8.200;2024-03-07T09:35:04;100804.44;;;5.61;73.16
7200;BME280;3641;49.082;8.200;2024-03-07T09:37:32;100801.03;;;5.59;70.99
7200;BME280;3641;49.082;8.200;2024-03-07T09:39:59;100806.41;;;5.39;71.04
7200;BME280;3641;49.082;8.200;2024-03-07T09:42:25;100800.13;;;5.39;70.90
7200;BME280;3641;49.082;8.200;2024-03-07T09:44:54;100800.28;;;5.47;70.64
7200;BME280;3641;49.082;8.200;2024-03-07T09:47:23;100798.03;;;5.62;72.42
7200;BME280;3641;49.082;8.200;2024-03-07T09:49:49;100795.59;;;5.69;72.27
7200;BME280;3641;49.082;8.200;2024-03-07T09:52:17;100795.72;;;5.77;72.26
7200;BME280;3641;49.082;8.200;2024-03-07T09:54:44;100793.16;;;5.85;72.95
7200;BME280;3641;49.082;8.200;2024-03-07T09:57:11;100793.16;;;5.95;72.59
7200;BME280;3641;49.082;8.200;2024-03-07T09:59:38;100796.16;;;5.92;71.35
7200;BME280;3641;49.082;8.200;2024-03-07T10:02:06;100793.63;;;6.00;71.75
7200;BME280;3641;49.082;8.200;2024-03-07T10:04:38;100792.53;;;6.40;71.75
7200;BME280;3641;49.082;8.200;2024-03-07T10:07:10;100799.81;;;7.33;67.85
7200;BME280;3641;49.082;8.200;2024-03-07T10:09:39;100795.13;;;8.41;65.26
7200;BME280;3641;49.082;8.200;2024-03-07T10:12:07;100794.84;;;8.44;62.17
7200;BME280;3641;49.082;8.200;2024-03-07T10:14:37;100799.91;;;8.21;65.38
7200;BME280;3641;49.082;8.200;2024-03-07T10:17:04;100790.38;;;8.69;66.58
7200;BME280;3641;49.082;8.200;2024-03-07T10:19:30;100793.69;;;8.29;65.75
7200;BME280;3641;49.082;8.200;2024-03-07T10:21:59;100801.47;;;7.61;65.74
7200;BME280;3641;49.082;8.200;2024-03-07T10:24:27;100791.69;;;7.87;64.75
7200;BME280;3641;49.082;8.200;2024-03-07T10:26:53;100798.81;;;7.70;66.26
7200;BME280;3641;49.082;8.200;2024-03-07T10:29:24;100789.50;;;7.90;66.08
7200;BME280;3641;49.082;8.200;2024-03-07T10:31:50;100787.63;;;7.91;66.09
7200;BME280;3641;49.082;8.200;2024-03-07T10:34:17;100783.44;;;7.96;66.31
7200;BME280;3641;49.082;8.200;2024-03-07T10:36:44;100779.56;;;7.81;65.63
7200;BME280;3641;49.082;8.200;2024-03-07T10:39:12;100774.88;;;7.91;67.99
7200;BME280;3641;49.082;8.200;2024-03-07T10:41:44;100777.06;;;7.88;65.71
7200;BME280;3641;49.082;8.200;2024-03-07T10:44:17;100767.63;;;7.74;63.93
7200;BME280;3641;49.082;8.200;2024-03-07T10:46:46;100766.75;;;7.73;64.66
7200;BME280;3641;49.082;8.200;2024-03-07T10:49:16;100768.06;;;7.51;64.38
7200;BME280;3641;49.082;8.200;2024-03-07T10:51:46;100770.78;;;7.51;66.20
7200;BME280;3641;49.082;8.200;2024-03-07T10:54:20;100752.69;;;7.78;65.86
7200;BME280;3641;49.082;8.200;2024-03-07T10:56:56;100756.41;;;7.95;68.94
7200;BME280;3641;49.082;8.200;2024-03-07T10:59:30;100755.09;;;7.81;65.93
7200;BME280;3641;49.082;8.200;2024-03-07T11:02:02;100755.63;;;7.85;66.82
7200;BME280;3641;49.082;8.200;2024-03-07T11:04:33;100760.63;;;7.71;67.98
7200;BME280;3641;49.082;8.200;2024-03-07T11:07:00;100752.16;;;7.74;68.05
7200;BME280;3641;49.082;8.200;2024-03-07T11:09:29;100747.56;;;7.75;65.74
7200;BME280;3641;49.082;8.200;2024-03-07T11:11:59;100746.38;;;7.95;67.85
7200;BME280;3641;49.082;8.200;2024-03-07T11:14:29;100742.19;;;8.01;67.37
7200;BME280;3641;49.082;8.200;2024-03-07T11:16:57;100735.31;;;7.71;66.04
7200;BME280;3641;49.082;8.200;2024-03-07T11:19:26;100742.50;;;7.80;69.41
7200;BME280;3641;49.082;8.200;2024-03-07T11:21:54;100739.94;;;7.78;67.76
7200;BME280;3641;49.082;8.200;2024-03-07T11:24:25;100737.69;;;7.92;66.93
7200;BME280;3641;49.082;8.200;2024-03-07T11:26:55;100734.28;;;7.90;66.39
7200;BME280;3641;49.082;8.200;2024-03-07T11:29:47;100735.91;;;7.82;66.20
7200;BME280;3641;49.082;8.200;2024-03-07T11:32:18;100734.66;;;7.95;68.07
7200;BME280;3641;49.082;8.200;2024-03-07T11:34:47;100729.66;;;8.08;67.38
7200;BME280;3641;49.082;8.200;2024-03-07T11:37:18;100727.31;;;7.69;65.24
7200;BME280;3641;49.082;8.200;2024-03-07T11:39:48;100723.97;;;7.75;67.13
7200;BME280;3641;49.082;8.200;2024-03-07T11:42:22;100717.53;;;7.76;66.96
7200;BME280;3641;49.082;8.200;2024-03-07T11:44:50;100716.72;;;7.84;66.77
7200;BME280;3641;49.082;8.200;2024-03-07T11:47:17;100709.97;;;7.88;68.25
7200;BME280;3641;49.082;8.200;2024-03-07T11:49:44;100713.34;;;7.64;67.93
7200;BME280;3641;49.082;8.200;2024-03-07T11:52:13;100704.75;;;7.51;67.23
7200;BME280;3641;49.082;8.200;2024-03-07T11:54:42;100708.63;;;7.30;67.53
7200;BME280;3641;49.082;8.200;2024-03-07T11:57:11;100711.19;;;7.14;68.17
7200;BME280;3641;49.082;8.200;2024-03-07T11:59:41;100702.66;;;7.26;68.47
7200;BME280;3641;49.082;8.200;2024-03-07T12:02:11;100694.03;;;7.49;71.53
7200;BME280;3641;49.082;8.200;2024-03-07T12:04:39;100704.53;;;7.44;68.38
7200;BME280;3641;49.082;8.200;2024-03-07T12:07:05;100698.16;;;7.53;68.83
7200;BME280;3641;49.082;8.200;2024-03-07T12:09:36;100692.75;;;7.79;69.93
7200;BME280;3641;49.082;8.200;2024-03-07T12:12:03;100686.88;;;7.66;68.81
7200;BME280;3641;49.082;8.200;2024-03-07T12:14:30;100688.88;;;7.64;66.50
7200;BME280;3641;49.082;8.200;2024-03-07T12:16:58;100683.78;;;7.43;67.28
7200;BME280;3641;49.082;8.200;2024-03-07T12:19:24;100681.88;;;7.53;67.54
7200;BME280;3641;49.082;8.200;2024-03-07T12:21:56;100675.56;;;7.53;67.98
7200;BME280;3641;49.082;8.200;2024-03-07T12:24:23;100681.28;;;7.68;67.33
7200;BME280;3641;49.082;8.200;2024-03-07T12:26:49;100677.44;;;7.78;69.67
7200;BME280;3641;49.082;8.200;2024-03-07T12:29:15;100672.09;;;7.87;66.36
7200;BME280;3641;49.082;8.200;2024-03-07T12:31:42;100676.34;;;7.89;67.41
7200;BME280;3641;49.082;8.200;2024-03-07T12:34:10;100679.06;;;7.89;69.63
7200;BME280;3641;49.082;8.200;2024-03-07T12:36:37;100675.97;;;7.58;66.80
7200;BME280;3641;49.082;8.200;2024-03-07T12:39:21;100682.97;;;7.87;70.87
7200;BME280;3641;49.082;8.200;2024-03-07T12:41:51;100663.66;;;7.72;69.42
7200;BME280;3641;49.082;8.200;2024-03-07T12:44:18;100671.38;;;7.85;71.62
7200;BME280;3641;49.082;8.200;2024-03-07T12:46:46;100665.25;;;7.82;70.58
7200;BME280;3641;49.082;8.200;2024-03-07T12:49:14;100667.59;;;7.77;68.86
7200;BME280;3641;49.082;8.200;2024-03-07T12:51:41;100661.59;;;7.48;68.56
7200;BME280;3641;49.082;8.200;2024-03-07T12:54:08;100662.84;;;7.79;72.73
7200;BME280;3641;49.082;8.200;2024-03-07T12:56:35;100660.09;;;7.71;68.75
7200;BME280;3641;49.082;8.200;2024-03-07T12:59:02;100654.13;;;7.50;70.06
7200;BME280;3641;49.082;8.200;2024-03-07T13:01:29;100661.28;;;7.77;71.36
7200;BME280;3641;49.082;8.200;2024-03-07T13:03:58;100656.53;;;7.71;69.91
7200;BME280;3641;49.082;8.200;2024-03-07T13:06:26;100650.84;;;7.64;68.16
7200;BME280;3641;49.082;8.200;2024-03-07T13:08:54;100650.69;;;7.66;69.21
7200;BME280;3641;49.082;8.200;2024-03-07T13:11:21;100647.81;;;7.67;67.14
7200;BME280;3641;49.082;8.200;2024-03-07T13:13:48;100641.50;;;7.58;66.94
7200;BME280;3641;49.082;8.200;2024-03-07T13:16:16;100647.22;;;7.55;68.01
7200;BME280;3641;49.082;8.200;2024-03-07T13:18:43;100646.97;;;7.67;68.48
7200;BME280;3641;49.082;8.200;2024-03-07T13:21:11;100644.19;;;7.58;67.43